Terminal Aerodrome Forecast
Issued by NWS Grand Forks, ND

Home | Current Version | Previous Version | Text Only | Print | Product List | Glossary On
Versions: 1 2 3 4 5 6 7 8 9 10 11 12 13 14 15 16 17 18 19 20 21 22 23
000
FTUS43 KFGF 291300 AAA
TAFGFK
TAF AMD
KGFK 291332Z 2914/3012 34017G27KT P6SM BKN040
      TEMPO 2914/2916 BKN025
     FM291800 34017G27KT P6SM SCT020
      TEMPO 2918/2921 BKN025
     FM300000 34007KT P6SM SCT250=

USA.gov is the U.S. government's official web portal to all federal, state and local government web resources and services.